sensor_id;sensor_type;location;lat;lon;timestamp;P1;durP1;ratioP1;P2;durP2;ratioP2
10851;SDS011;5479;52.046;6.314;2024-03-22T00:00:51;31.27;;;22.97;;
10851;SDS011;5479;52.046;6.314;2024-03-22T00:03:18;30.93;;;22.53;;
10851;SDS011;5479;52.046;6.314;2024-03-22T00:05:46;33.97;;;23.47;;
10851;SDS011;5479;52.046;6.314;2024-03-22T00:08:17;32.40;;;23.13;;
10851;SDS011;5479;52.046;6.314;2024-03-22T00:10:45;34.30;;;23.60;;
10851;SDS011;5479;52.046;6.314;2024-03-22T00:13:13;33.20;;;23.07;;
10851;SDS011;5479;52.046;6.314;2024-03-22T00:15:41;34.03;;;23.77;;
10851;SDS011;5479;52.046;6.314;2024-03-22T00:18:08;31.53;;;22.97;;
10851;SDS011;5479;52.046;6.314;2024-03-22T00:20:36;32.73;;;23.57;;
10851;SDS011;5479;52.046;6.314;2024-03-22T00:23:06;32.83;;;22.80;;
10851;SDS011;5479;52.046;6.314;2024-03-22T00:25:34;32.23;;;23.83;;
10851;SDS011;5479;52.046;6.314;2024-03-22T00:28:03;32.63;;;22.70;;
10851;SDS011;5479;52.046;6.314;2024-03-22T00:30:33;33.80;;;23.50;;
10851;SDS011;5479;52.046;6.314;2024-03-22T00:33:00;32.53;;;23.00;;
10851;SDS011;5479;52.046;6.314;2024-03-22T00:35:28;30.80;;;22.17;;
10851;SDS011;5479;52.046;6.314;2024-03-22T00:37:55;34.20;;;24.03;;
10851;SDS011;5479;52.046;6.314;2024-03-22T00:40:23;31.67;;;22.93;;
10851;SDS011;5479;52.046;6.314;2024-03-22T00:42:50;34.70;;;23.90;;
10851;SDS011;5479;52.046;6.314;2024-03-22T00:45:17;34.07;;;24.07;;
10851;SDS011;5479;52.046;6.314;2024-03-22T00:47:46;35.83;;;23.77;;
10851;SDS011;5479;52.046;6.314;2024-03-22T00:50:13;34.57;;;23.63;;
10851;SDS011;5479;52.046;6.314;2024-03-22T00:52:40;35.30;;;24.23;;
10851;SDS011;5479;52.046;6.314;2024-03-22T00:55:09;35.27;;;23.67;;
10851;SDS011;5479;52.046;6.314;2024-03-22T00:57:35;33.20;;;23.00;;
10851;SDS011;5479;52.046;6.314;2024-03-22T01:00:04;36.53;;;24.77;;
10851;SDS011;5479;52.046;6.314;2024-03-22T01:02:31;34.20;;;23.70;;
10851;SDS011;5479;52.046;6.314;2024-03-22T01:05:00;33.60;;;24.13;;
10851;SDS011;5479;52.046;6.314;2024-03-22T01:07:30;38.50;;;25.10;;
10851;SDS011;5479;52.046;6.314;2024-03-22T01:09:58;37.83;;;24.43;;
10851;SDS011;5479;52.046;6.314;2024-03-22T01:12:25;33.93;;;23.60;;
10851;SDS011;5479;52.046;6.314;2024-03-22T01:14:53;36.20;;;24.50;;
10851;SDS011;5479;52.046;6.314;2024-03-22T01:17:20;37.67;;;25.30;;
10851;SDS011;5479;52.046;6.314;2024-03-22T01:19:49;37.97;;;26.07;;
10851;SDS011;5479;52.046;6.314;2024-03-22T01:22:18;36.63;;;24.93;;
10851;SDS011;5479;52.046;6.314;2024-03-22T01:24:46;37.63;;;25.83;;
10851;SDS011;5479;52.046;6.314;2024-03-22T01:27:14;36.67;;;24.73;;
10851;SDS011;5479;52.046;6.314;2024-03-22T01:29:41;34.57;;;23.53;;
10851;SDS011;5479;52.046;6.314;2024-03-22T01:32:08;37.80;;;26.33;;
10851;SDS011;5479;52.046;6.314;2024-03-22T01:34:36;37.07;;;24.80;;
10851;SDS011;5479;52.046;6.314;2024-03-22T01:37:03;39.00;;;25.73;;
10851;SDS011;5479;52.046;6.314;2024-03-22T01:39:32;37.87;;;26.37;;
10851;SDS011;5479;52.046;6.314;2024-03-22T01:41:59;37.40;;;24.83;;
10851;SDS011;5479;52.046;6.314;2024-03-22T01:44:27;40.53;;;26.20;;
10851;SDS011;5479;52.046;6.314;2024-03-22T01:46:55;40.50;;;26.90;;
10851;SDS011;5479;52.046;6.314;2024-03-22T01:49:23;39.87;;;26.30;;
10851;SDS011;5479;52.046;6.314;2024-03-22T01:51:52;40.03;;;26.60;;
10851;SDS011;5479;52.046;6.314;2024-03-22T01:54:20;40.93;;;26.10;;
10851;SDS011;5479;52.046;6.314;2024-03-22T01:56:48;37.97;;;26.23;;
10851;SDS011;5479;52.046;6.314;2024-03-22T01:59:16;39.33;;;27.03;;
10851;SDS011;5479;52.046;6.314;2024-03-22T02:01:44;38.03;;;25.53;;
10851;SDS011;5479;52.046;6.314;2024-03-22T02:04:12;42.20;;;26.87;;
10851;SDS011;5479;52.046;6.314;2024-03-22T02:06:40;39.37;;;26.67;;
10851;SDS011;5479;52.046;6.314;2024-03-22T02:09:08;41.77;;;27.00;;
10851;SDS011;5479;52.046;6.314;2024-03-22T02:11:37;39.43;;;27.53;;
10851;SDS011;5479;52.046;6.314;2024-03-22T02:14:08;38.17;;;25.27;;
10851;SDS011;5479;52.046;6.314;2024-03-22T02:16:36;39.87;;;26.97;;
10851;SDS011;5479;52.046;6.314;2024-03-22T02:19:06;41.53;;;26.47;;
10851;SDS011;5479;52.046;6.314;2024-03-22T02:21:34;38.53;;;26.00;;
10851;SDS011;5479;52.046;6.314;2024-03-22T02:24:02;37.80;;;26.63;;
10851;SDS011;5479;52.046;6.314;2024-03-22T02:26:30;38.57;;;26.67;;
10851;SDS011;5479;52.046;6.314;2024-03-22T02:28:57;39.20;;;26.73;;
10851;SDS011;5479;52.046;6.314;2024-03-22T02:31:28;44.93;;;27.50;;
10851;SDS011;5479;52.046;6.314;2024-03-22T02:33:55;39.90;;;26.77;;
10851;SDS011;5479;52.046;6.314;2024-03-22T02:36:23;40.47;;;27.70;;
10851;SDS011;5479;52.046;6.314;2024-03-22T02:38:50;39.07;;;26.63;;
10851;SDS011;5479;52.046;6.314;2024-03-22T02:41:22;37.07;;;26.50;;
10851;SDS011;5479;52.046;6.314;2024-03-22T02:43:49;38.33;;;26.13;;
10851;SDS011;5479;52.046;6.314;2024-03-22T02:46:19;39.50;;;26.03;;
10851;SDS011;5479;52.046;6.314;2024-03-22T02:48:46;40.30;;;28.13;;
10851;SDS011;5479;52.046;6.314;2024-03-22T02:51:14;37.53;;;25.70;;
10851;SDS011;5479;52.046;6.314;2024-03-22T02:53:41;40.97;;;26.67;;
10851;SDS011;5479;52.046;6.314;2024-03-22T02:56:09;38.27;;;26.83;;
10851;SDS011;5479;52.046;6.314;2024-03-22T02:58:37;39.77;;;26.93;;
10851;SDS011;5479;52.046;6.314;2024-03-22T03:01:05;41.37;;;26.37;;
10851;SDS011;5479;52.046;6.314;2024-03-22T03:03:35;37.63;;;26.57;;
10851;SDS011;5479;52.046;6.314;2024-03-22T03:06:03;39.00;;;27.03;;
10851;SDS011;5479;52.046;6.314;2024-03-22T03:08:30;41.90;;;27.40;;
10851;SDS011;5479;52.046;6.314;2024-03-22T03:10:58;37.43;;;26.23;;
10851;SDS011;5479;52.046;6.314;2024-03-22T03:13:25;41.13;;;27.03;;
10851;SDS011;5479;52.046;6.314;2024-03-22T03:15:56;39.00;;;27.33;;
10851;SDS011;5479;52.046;6.314;2024-03-22T03:18:24;39.37;;;27.50;;
10851;SDS011;5479;52.046;6.314;2024-03-22T03:20:52;41.27;;;26.90;;
10851;SDS011;5479;52.046;6.314;2024-03-22T03:23:19;36.93;;;25.67;;
10851;SDS011;5479;52.046;6.314;2024-03-22T03:25:46;38.47;;;26.13;;
10851;SDS011;5479;52.046;6.314;2024-03-22T03:28:14;39.83;;;27.53;;
10851;SDS011;5479;52.046;6.314;2024-03-22T03:30:42;39.73;;;26.70;;
10851;SDS011;5479;52.046;6.314;2024-03-22T03:33:10;39.70;;;27.03;;
10851;SDS011;5479;52.046;6.314;2024-03-22T03:35:38;43.33;;;27.97;;
10851;SDS011;5479;52.046;6.314;2024-03-22T03:38:05;35.37;;;26.53;;
10851;SDS011;5479;52.046;6.314;2024-03-22T03:40:33;38.07;;;26.50;;
10851;SDS011;5479;52.046;6.314;2024-03-22T03:43:01;37.77;;;26.90;;
10851;SDS011;5479;52.046;6.314;2024-03-22T03:45:30;39.03;;;25.70;;
10851;SDS011;5479;52.046;6.314;2024-03-22T03:47:57;41.37;;;27.77;;
10851;SDS011;5479;52.046;6.314;2024-03-22T03:50:26;39.23;;;27.17;;
10851;SDS011;5479;52.046;6.314;2024-03-22T03:52:53;41.20;;;28.07;;
10851;SDS011;5479;52.046;6.314;2024-03-22T03:55:21;38.40;;;27.70;;
10851;SDS011;5479;52.046;6.314;2024-03-22T03:57:49;41.23;;;28.17;;
10851;SDS011;5479;52.046;6.314;2024-03-22T04:00:18;38.70;;;27.43;;
10851;SDS011;5479;52.046;6.314;2024-03-22T04:02:48;36.77;;;26.27;;
10851;SDS011;5479;52.046;6.314;2024-03-22T04:05:16;37.67;;;26.77;;
10851;SDS011;5479;52.046;6.314;2024-03-22T04:07:48;37.47;;;27.07;;
10851;SDS011;5479;52.046;6.314;2024-03-22T04:10:15;35.97;;;25.80;;
10851;SDS011;5479;52.046;6.314;2024-03-22T04:12:45;39.20;;;26.70;;
10851;SDS011;5479;52.046;6.314;2024-03-22T04:15:13;39.93;;;28.23;;
10851;SDS011;5479;52.046;6.314;2024-03-22T04:17:43;36.83;;;27.00;;
10851;SDS011;5479;52.046;6.314;2024-03-22T04:20:11;38.13;;;27.67;;
10851;SDS011;5479;52.046;6.314;2024-03-22T04:22:38;37.43;;;27.47;;
10851;SDS011;5479;52.046;6.314;2024-03-22T04:25:07;39.23;;;27.13;;
10851;SDS011;5479;52.046;6.314;2024-03-22T04:27:35;36.13;;;27.60;;
10851;SDS011;5479;52.046;6.314;2024-03-22T04:30:04;38.23;;;27.33;;
10851;SDS011;5479;52.046;6.314;2024-03-22T04:32:36;40.63;;;29.20;;
10851;SDS011;5479;52.046;6.314;2024-03-22T04:35:06;37.57;;;28.07;;
10851;SDS011;5479;52.046;6.314;2024-03-22T04:37:34;37.40;;;28.17;;
10851;SDS011;5479;52.046;6.314;2024-03-22T04:40:05;38.43;;;28.87;;
10851;SDS011;5479;52.046;6.314;2024-03-22T04:42:35;37.90;;;28.47;;
10851;SDS011;5479;52.046;6.314;2024-03-22T04:45:03;39.37;;;28.43;;
10851;SDS011;5479;52.046;6.314;2024-03-22T04:47:32;40.73;;;27.87;;
10851;SDS011;5479;52.046;6.314;2024-03-22T04:49:58;37.87;;;27.73;;
10851;SDS011;5479;52.046;6.314;2024-03-22T04:52:26;36.80;;;26.90;;
10851;SDS011;5479;52.046;6.314;2024-03-22T04:54:53;38.37;;;28.13;;
10851;SDS011;5479;52.046;6.314;2024-03-22T04:57:21;38.47;;;28.17;;
10851;SDS011;5479;52.046;6.314;2024-03-22T04:59:50;38.10;;;28.63;;
10851;SDS011;5479;52.046;6.314;2024-03-22T05:02:19;37.30;;;28.20;;
10851;SDS011;5479;52.046;6.314;2024-03-22T05:04:46;38.60;;;27.63;;
10851;SDS011;5479;52.046;6.314;2024-03-22T05:07:15;36.17;;;28.53;;
10851;SDS011;5479;52.046;6.314;2024-03-22T05:09:42;35.10;;;27.40;;
10851;SDS011;5479;52.046;6.314;2024-03-22T05:12:10;37.30;;;27.87;;
10851;SDS011;5479;52.046;6.314;2024-03-22T05:14:37;35.83;;;26.20;;
10851;SDS011;5479;52.046;6.314;2024-03-22T05:17:06;35.10;;;26.07;;
10851;SDS011;5479;52.046;6.314;2024-03-22T05:19:33;35.40;;;25.73;;
10851;SDS011;5479;52.046;6.314;2024-03-22T05:22:01;38.73;;;27.40;;
10851;SDS011;5479;52.046;6.314;2024-03-22T05:24:29;35.87;;;26.50;;
10851;SDS011;5479;52.046;6.314;2024-03-22T05:26:56;34.77;;;26.83;;
10851;SDS011;5479;52.046;6.314;2024-03-22T05:29:24;32.83;;;25.93;;
10851;SDS011;5479;52.046;6.314;2024-03-22T05:31:51;35.33;;;26.63;;
10851;SDS011;5479;52.046;6.314;2024-03-22T05:34:20;33.07;;;25.77;;
10851;SDS011;5479;52.046;6.314;2024-03-22T05:36:48;35.43;;;26.60;;
10851;SDS011;5479;52.046;6.314;2024-03-22T05:39:18;32.80;;;24.87;;
10851;SDS011;5479;52.046;6.314;2024-03-22T05:41:45;34.27;;;25.47;;
10851;SDS011;5479;52.046;6.314;2024-03-22T05:44:13;34.10;;;25.23;;
10851;SDS011;5479;52.046;6.314;2024-03-22T05:46:40;31.13;;;23.63;;
10851;SDS011;5479;52.046;6.314;2024-03-22T05:49:08;31.70;;;23.80;;
10851;SDS011;5479;52.046;6.314;2024-03-22T05:51:36;32.97;;;23.87;;
10851;SDS011;5479;52.046;6.314;2024-03-22T05:54:06;30.17;;;23.30;;
10851;SDS011;5479;52.046;6.314;2024-03-22T05:56:33;27.43;;;22.23;;
10851;SDS011;5479;52.046;6.314;2024-03-22T05:59:01;29.70;;;21.13;;
10851;SDS011;5479;52.046;6.314;2024-03-22T06:01:29;27.33;;;21.43;;
10851;SDS011;5479;52.046;6.314;2024-03-22T06:03:57;27.67;;;21.13;;
10851;SDS011;5479;52.046;6.314;2024-03-22T06:06:27;26.87;;;20.60;;
10851;SDS011;5479;52.046;6.314;2024-03-22T06:08:57;28.30;;;20.40;;
10851;SDS011;5479;52.046;6.314;2024-03-22T06:11:26;26.03;;;20.37;;
10851;SDS011;5479;52.046;6.314;2024-03-22T06:13:54;25.03;;;19.43;;
10851;SDS011;5479;52.046;6.314;2024-03-22T06:16:21;23.03;;;19.00;;
10851;SDS011;5479;52.046;6.314;2024-03-22T06:18:49;24.33;;;19.00;;
10851;SDS011;5479;52.046;6.314;2024-03-22T06:21:16;26.37;;;18.83;;
10851;SDS011;5479;52.046;6.314;2024-03-22T06:23:48;24.47;;;19.30;;
10851;SDS011;5479;52.046;6.314;2024-03-22T06:26:17;23.50;;;18.30;;
10851;SDS011;5479;52.046;6.314;2024-03-22T06:28:45;24.60;;;18.83;;
10851;SDS011;5479;52.046;6.314;2024-03-22T06:31:13;25.90;;;18.17;;
10851;SDS011;5479;52.046;6.314;2024-03-22T06:33:41;24.17;;;18.40;;
10851;SDS011;5479;52.046;6.314;2024-03-22T06:36:08;23.27;;;18.17;;
10851;SDS011;5479;52.046;6.314;2024-03-22T06:38:36;24.30;;;18.10;;
10851;SDS011;5479;52.046;6.314;2024-03-22T06:41:02;24.20;;;18.10;;
10851;SDS011;5479;52.046;6.314;2024-03-22T06:43:32;24.77;;;17.43;;
10851;SDS011;5479;52.046;6.314;2024-03-22T06:45:59;24.97;;;19.10;;
10851;SDS011;5479;52.046;6.314;2024-03-22T06:48:27;23.37;;;18.17;;
10851;SDS011;5479;52.046;6.314;2024-03-22T06:50:54;24.77;;;18.60;;
10851;SDS011;5479;52.046;6.314;2024-03-22T06:53:22;22.77;;;17.37;;
10851;SDS011;5479;52.046;6.314;2024-03-22T06:55:48;23.27;;;17.50;;
10851;SDS011;5479;52.046;6.314;2024-03-22T06:58:16;21.90;;;17.23;;
10851;SDS011;5479;52.046;6.314;2024-03-22T07:00:45;21.17;;;16.53;;
10851;SDS011;5479;52.046;6.314;2024-03-22T07:03:12;21.70;;;17.20;;
10851;SDS011;5479;52.046;6.314;2024-03-22T07:05:40;24.37;;;18.03;;
10851;SDS011;5479;52.046;6.314;2024-03-22T07:08:08;22.73;;;16.13;;
10851;SDS011;5479;52.046;6.314;2024-03-22T07:10:38;22.40;;;16.40;;
10851;SDS011;5479;52.046;6.314;2024-03-22T07:13:06;22.00;;;17.10;;
10851;SDS011;5479;52.046;6.314;2024-03-22T07:15:33;21.17;;;16.93;;
10851;SDS011;5479;52.046;6.314;2024-03-22T07:18:02;22.77;;;16.37;;
10851;SDS011;5479;52.046;6.314;2024-03-22T07:20:30;21.30;;;16.80;;
10851;SDS011;5479;52.046;6.314;2024-03-22T07:22:58;23.67;;;16.87;;
10851;SDS011;5479;52.046;6.314;2024-03-22T07:25:25;20.83;;;15.80;;
10851;SDS011;5479;52.046;6.314;2024-03-22T07:27:53;24.47;;;16.40;;
10851;SDS011;5479;52.046;6.314;2024-03-22T07:30:19;22.70;;;15.73;;
10851;SDS011;5479;52.046;6.314;2024-03-22T07:32:47;20.93;;;16.10;;
10851;SDS011;5479;52.046;6.314;2024-03-22T07:35:16;20.57;;;15.90;;
10851;SDS011;5479;52.046;6.314;2024-03-22T07:37:44;21.47;;;16.50;;
10851;SDS011;5479;52.046;6.314;2024-03-22T07:40:11;21.07;;;16.33;;
10851;SDS011;5479;52.046;6.314;2024-03-22T07:42:39;19.40;;;15.33;;
10851;SDS011;5479;52.046;6.314;2024-03-22T07:45:06;20.87;;;15.40;;
10851;SDS011;5479;52.046;6.314;2024-03-22T07:47:35;20.13;;;15.67;;
10851;SDS011;5479;52.046;6.314;2024-03-22T07:50:02;21.27;;;16.00;;
10851;SDS011;5479;52.046;6.314;2024-03-22T07:52:34;20.83;;;16.27;;
10851;SDS011;5479;52.046;6.314;2024-03-22T07:55:01;21.33;;;16.50;;
10851;SDS011;5479;52.046;6.314;2024-03-22T07:57:29;21.60;;;16.53;;
10851;SDS011;5479;52.046;6.314;2024-03-22T07:59:57;20.40;;;16.30;;
10851;SDS011;5479;52.046;6.314;2024-03-22T08:02:25;20.87;;;16.40;;
10851;SDS011;5479;52.046;6.314;2024-03-22T08:04:52;20.90;;;15.80;;
10851;SDS011;5479;52.046;6.314;2024-03-22T08:07:21;19.87;;;15.93;;
10851;SDS011;5479;52.046;6.314;2024-03-22T08:09:50;18.80;;;15.93;;
10851;SDS011;5479;52.046;6.314;2024-03-22T08:12:18;21.50;;;16.10;;
10851;SDS011;5479;52.046;6.314;2024-03-22T08:14:45;18.37;;;15.40;;
10851;SDS011;5479;52.046;6.314;2024-03-22T08:17:13;22.80;;;17.03;;
10851;SDS011;5479;52.046;6.314;2024-03-22T08:19:41;21.43;;;15.60;;
10851;SDS011;5479;52.046;6.314;2024-03-22T08:22:11;19.80;;;16.20;;
10851;SDS011;5479;52.046;6.314;2024-03-22T08:24:38;20.33;;;15.93;;
10851;SDS011;5479;52.046;6.314;2024-03-22T08:27:09;20.47;;;16.03;;
10851;SDS011;5479;52.046;6.314;2024-03-22T08:29:37;21.87;;;16.53;;
10851;SDS011;5479;52.046;6.314;2024-03-22T08:32:05;21.37;;;16.33;;
10851;SDS011;5479;52.046;6.314;2024-03-22T08:34:33;21.73;;;17.10;;
10851;SDS011;5479;52.046;6.314;2024-03-22T08:37:00;21.87;;;16.10;;
10851;SDS011;5479;52.046;6.314;2024-03-22T08:39:30;19.13;;;14.93;;
10851;SDS011;5479;52.046;6.314;2024-03-22T08:41:58;20.00;;;15.57;;
10851;SDS011;5479;52.046;6.314;2024-03-22T08:44:26;20.53;;;16.40;;
10851;SDS011;5479;52.046;6.314;2024-03-22T08:46:56;20.90;;;17.13;;
10851;SDS011;5479;52.046;6.314;2024-03-22T08:49:23;23.53;;;16.50;;
10851;SDS011;5479;52.046;6.314;2024-03-22T08:51:51;21.50;;;17.47;;
10851;SDS011;5479;52.046;6.314;2024-03-22T08:54:21;20.83;;;16.07;;
10851;SDS011;5479;52.046;6.314;2024-03-22T08:56:48;21.57;;;16.37;;
10851;SDS011;5479;52.046;6.314;2024-03-22T08:59:15;23.33;;;16.77;;
10851;SDS011;5479;52.046;6.314;2024-03-22T09:01:44;21.67;;;17.03;;
10851;SDS011;5479;52.046;6.314;2024-03-22T09:04:11;23.70;;;17.50;;
10851;SDS011;5479;52.046;6.314;2024-03-22T09:06:39;21.83;;;16.63;;
10851;SDS011;5479;52.046;6.314;2024-03-22T09:09:06;22.53;;;17.07;;
10851;SDS011;5479;52.046;6.314;2024-03-22T09:11:35;21.80;;;16.60;;
10851;SDS011;5479;52.046;6.314;2024-03-22T09:14:02;24.40;;;17.93;;
10851;SDS011;5479;52.046;6.314;2024-03-22T09:16:30;28.43;;;18.67;;
10851;SDS011;5479;52.046;6.314;2024-03-22T09:18:58;23.87;;;18.40;;
10851;SDS011;5479;52.046;6.314;2024-03-22T09:21:26;25.17;;;18.70;;
10851;SDS011;5479;52.046;6.314;2024-03-22T09:23:53;24.57;;;19.00;;
10851;SDS011;5479;52.046;6.314;2024-03-22T09:26:20;27.30;;;19.80;;
10851;SDS011;5479;52.046;6.314;2024-03-22T09:28:48;26.53;;;20.67;;
10851;SDS011;5479;52.046;6.314;2024-03-22T09:31:16;29.97;;;20.40;;
10851;SDS011;5479;52.046;6.314;2024-03-22T09:33:46;27.73;;;21.40;;
10851;SDS011;5479;52.046;6.314;2024-03-22T09:36:15;27.77;;;20.83;;
10851;SDS011;5479;52.046;6.314;2024-03-22T09:38:42;30.17;;;21.50;;
10851;SDS011;5479;52.046;6.314;2024-03-22T09:41:10;30.65;;;25.58;;
10851;SDS011;5479;52.046;6.314;2024-03-22T09:43:39;29.60;;;22.57;;
10851;SDS011;5479;52.046;6.314;2024-03-22T09:46:10;30.10;;;23.43;;
10851;SDS011;5479;52.046;6.314;2024-03-22T09:48:40;28.27;;;22.03;;
10851;SDS011;5479;52.046;6.314;2024-03-22T09:51:09;30.63;;;23.53;;
10851;SDS011;5479;52.046;6.314;2024-03-22T09:53:37;29.17;;;23.17;;
10851;SDS011;5479;52.046;6.314;2024-03-22T09:56:07;31.87;;;24.80;;
10851;SDS011;5479;52.046;6.314;2024-03-22T09:58:34;30.67;;;22.83;;
10851;SDS011;5479;52.046;6.314;2024-03-22T10:01:02;30.77;;;23.87;;
10851;SDS011;5479;52.046;6.314;2024-03-22T10:03:33;30.70;;;23.30;;
10851;SDS011;5479;52.046;6.314;2024-03-22T10:06:01;31.30;;;22.10;;
10851;SDS011;5479;52.046;6.314;2024-03-22T10:08:28;34.23;;;22.57;;
10851;SDS011;5479;52.046;6.314;2024-03-22T10:10:57;34.20;;;22.87;;
10851;SDS011;5479;52.046;6.314;2024-03-22T10:13:24;30.47;;;22.80;;
10851;SDS011;5479;52.046;6.314;2024-03-22T10:15:52;30.47;;;22.23;;
10851;SDS011;5479;52.046;6.314;2024-03-22T10:18:19;28.50;;;22.13;;
10851;SDS011;5479;52.046;6.314;2024-03-22T10:20:58;29.10;;;21.57;;
10851;SDS011;5479;52.046;6.314;2024-03-22T10:23:25;29.93;;;22.40;;
10851;SDS011;5479;52.046;6.314;2024-03-22T10:25:53;30.17;;;22.07;;
10851;SDS011;5479;52.046;6.314;2024-03-22T10:28:22;30.63;;;22.33;;
10851;SDS011;5479;52.046;6.314;2024-03-22T10:30:51;30.10;;;21.60;;
10851;SDS011;5479;52.046;6.314;2024-03-22T10:33:18;28.47;;;21.37;;
10851;SDS011;5479;52.046;6.314;2024-03-22T10:35:50;32.70;;;22.40;;
10851;SDS011;5479;52.046;6.314;2024-03-22T10:38:18;30.47;;;22.70;;
10851;SDS011;5479;52.046;6.314;2024-03-22T10:40:47;29.10;;;22.50;;
10851;SDS011;5479;52.046;6.314;2024-03-22T10:43:14;30.13;;;21.57;;
10851;SDS011;5479;52.046;6.314;2024-03-22T10:45:47;28.70;;;22.30;;
10851;SDS011;5479;52.046;6.314;2024-03-22T10:48:14;29.13;;;21.87;;
10851;SDS011;5479;52.046;6.314;2024-03-22T10:50:44;31.03;;;22.47;;
10851;SDS011;5479;52.046;6.314;2024-03-22T10:53:13;30.23;;;22.80;;
10851;SDS011;5479;52.046;6.314;2024-03-22T10:55:47;33.43;;;23.40;;
10851;SDS011;5479;52.046;6.314;2024-03-22T10:58:16;31.57;;;22.50;;
10851;SDS011;5479;52.046;6.314;2024-03-22T11:00:46;31.60;;;22.70;;
10851;SDS011;5479;52.046;6.314;2024-03-22T11:03:13;27.37;;;21.40;;
10851;SDS011;5479;52.046;6.314;2024-03-22T11:05:44;28.70;;;20.90;;
10851;SDS011;5479;52.046;6.314;2024-03-22T11:08:12;25.90;;;20.47;;
10851;SDS011;5479;52.046;6.314;2024-03-22T11:10:40;24.20;;;19.20;;
10851;SDS011;5479;52.046;6.314;2024-03-22T11:13:08;26.37;;;19.63;;
10851;SDS011;5479;52.046;6.314;2024-03-22T11:15:36;25.00;;;19.63;;
10851;SDS011;5479;52.046;6.314;2024-03-22T11:18:05;25.93;;;18.47;;
10851;SDS011;5479;52.046;6.314;2024-03-22T11:20:35;23.23;;;18.10;;
10851;SDS011;5479;52.046;6.314;2024-03-22T11:23:03;23.83;;;17.50;;
10851;SDS011;5479;52.046;6.314;2024-03-22T11:25:31;27.03;;;18.40;;
10851;SDS011;5479;52.046;6.314;2024-03-22T11:27:59;24.60;;;19.57;;
10851;SDS011;5479;52.046;6.314;2024-03-22T11:30:30;23.63;;;17.83;;
10851;SDS011;5479;52.046;6.314;2024-03-22T11:33:00;23.30;;;17.67;;
10851;SDS011;5479;52.046;6.314;2024-03-22T11:35:30;21.13;;;17.10;;
10851;SDS011;5479;52.046;6.314;2024-03-22T11:38:01;22.17;;;16.47;;
10851;SDS011;5479;52.046;6.314;2024-03-22T11:40:31;22.13;;;16.00;;
10851;SDS011;5479;52.046;6.314;2024-03-22T11:43:00;19.57;;;14.63;;
10851;SDS011;5479;52.046;6.314;2024-03-22T11:45:28;21.33;;;15.10;;
10851;SDS011;5479;52.046;6.314;2024-03-22T11:48:01;18.87;;;15.23;;
10851;SDS011;5479;52.046;6.314;2024-03-22T11:50:29;19.97;;;15.33;;
10851;SDS011;5479;52.046;6.314;2024-03-22T11:52:58;19.97;;;15.63;;
10851;SDS011;5479;52.046;6.314;2024-03-22T11:55:26;19.17;;;15.30;;
10851;SDS011;5479;52.046;6.314;2024-03-22T11:57:57;19.67;;;15.17;;
10851;SDS011;5479;52.046;6.314;2024-03-22T12:00:24;23.07;;;16.23;;
10851;SDS011;5479;52.046;6.314;2024-03-22T12:02:54;20.40;;;16.17;;
10851;SDS011;5479;52.046;6.314;2024-03-22T12:05:24;20.60;;;15.60;;
10851;SDS011;5479;52.046;6.314;2024-03-22T12:07:54;22.37;;;16.77;;
10851;SDS011;5479;52.046;6.314;2024-03-22T12:10:21;19.77;;;15.77;;
10851;SDS011;5479;52.046;6.314;2024-03-22T12:12:49;19.33;;;13.73;;
10851;SDS011;5479;52.046;6.314;2024-03-22T12:15:15;16.47;;;13.37;;
10851;SDS011;5479;52.046;6.314;2024-03-22T12:17:43;19.03;;;12.30;;
10851;SDS011;5479;52.046;6.314;2024-03-22T12:20:12;17.17;;;12.80;;
10851;SDS011;5479;52.046;6.314;2024-03-22T12:22:41;15.43;;;12.27;;
10851;SDS011;5479;52.046;6.314;2024-03-22T12:25:10;18.40;;;13.00;;
10851;SDS011;5479;52.046;6.314;2024-03-22T12:27:38;17.30;;;12.50;;
10851;SDS011;5479;52.046;6.314;2024-03-22T12:30:05;14.97;;;11.47;;
10851;SDS011;5479;52.046;6.314;2024-03-22T12:32:34;14.33;;;11.37;;
10851;SDS011;5479;52.046;6.314;2024-03-22T12:35:01;14.00;;;10.60;;
10851;SDS011;5479;52.046;6.314;2024-03-22T12:37:30;11.70;;;9.67;;
10851;SDS011;5479;52.046;6.314;2024-03-22T12:39:57;12.17;;;9.17;;
10851;SDS011;5479;52.046;6.314;2024-03-22T12:42:26;11.20;;;9.13;;
10851;SDS011;5479;52.046;6.314;2024-03-22T12:44:53;10.03;;;8.53;;
10851;SDS011;5479;52.046;6.314;2024-03-22T12:47:21;9.13;;;7.57;;
10851;SDS011;5479;52.046;6.314;2024-03-22T12:49:48;8.73;;;7.40;;
10851;SDS011;5479;52.046;6.314;2024-03-22T12:52:16;11.67;;;8.50;;
10851;SDS011;5479;52.046;6.314;2024-03-22T12:54:43;10.73;;;8.87;;
10851;SDS011;5479;52.046;6.314;2024-03-22T12:57:11;10.20;;;8.70;;
10851;SDS011;5479;52.046;6.314;2024-03-22T12:59:40;10.00;;;8.10;;
10851;SDS011;5479;52.046;6.314;2024-03-22T13:02:08;9.73;;;8.63;;
10851;SDS011;5479;52.046;6.314;2024-03-22T13:04:35;10.33;;;9.00;;
10851;SDS011;5479;52.046;6.314;2024-03-22T13:07:03;9.27;;;8.20;;
10851;SDS011;5479;52.046;6.314;2024-03-22T13:09:30;9.97;;;8.10;;
10851;SDS011;5479;52.046;6.314;2024-03-22T13:11:58;9.40;;;8.00;;
10851;SDS011;5479;52.046;6.314;2024-03-22T13:14:25;9.80;;;7.60;;
10851;SDS011;5479;52.046;6.314;2024-03-22T13:16:55;8.73;;;6.73;;
10851;SDS011;5479;52.046;6.314;2024-03-22T13:19:24;8.10;;;7.00;;
10851;SDS011;5479;52.046;6.314;2024-03-22T13:21:52;8.53;;;6.80;;
10851;SDS011;5479;52.046;6.314;2024-03-22T13:24:19;8.63;;;7.07;;
10851;SDS011;5479;52.046;6.314;2024-03-22T13:26:47;9.03;;;7.47;;
10851;SDS011;5479;52.046;6.314;2024-03-22T13:29:14;8.93;;;7.17;;
10851;SDS011;5479;52.046;6.314;2024-03-22T13:31:42;9.00;;;7.50;;
10851;SDS011;5479;52.046;6.314;2024-03-22T13:34:11;8.77;;;7.37;;
10851;SDS011;5479;52.046;6.314;2024-03-22T13:36:39;7.77;;;6.87;;
10851;SDS011;5479;52.046;6.314;2024-03-22T13:39:06;8.20;;;6.77;;
10851;SDS011;5479;52.046;6.314;2024-03-22T13:41:36;9.43;;;6.97;;
10851;SDS011;5479;52.046;6.314;2024-03-22T13:44:04;7.67;;;6.30;;
10851;SDS011;5479;52.046;6.314;2024-03-22T13:46:34;8.20;;;6.20;;
10851;SDS011;5479;52.046;6.314;2024-03-22T13:49:03;7.03;;;6.20;;
10851;SDS011;5479;52.046;6.314;2024-03-22T13:51:33;7.13;;;5.97;;
10851;SDS011;5479;52.046;6.314;2024-03-22T13:54:00;7.90;;;6.10;;
10851;SDS011;5479;52.046;6.314;2024-03-22T13:56:29;8.23;;;6.60;;
10851;SDS011;5479;52.046;6.314;2024-03-22T13:58:56;7.40;;;6.37;;
10851;SDS011;5479;52.046;6.314;2024-03-22T14:01:24;7.40;;;5.90;;
10851;SDS011;5479;52.046;6.314;2024-03-22T14:03:51;7.47;;;5.60;;
10851;SDS011;5479;52.046;6.314;2024-03-22T14:06:19;7.53;;;5.57;;
10851;SDS011;5479;52.046;6.314;2024-03-22T14:08:47;7.07;;;5.83;;
10851;SDS011;5479;52.046;6.314;2024-03-22T14:11:15;7.77;;;6.17;;
10851;SDS011;5479;52.046;6.314;2024-03-22T14:13:42;7.97;;;5.90;;
10851;SDS011;5479;52.046;6.314;2024-03-22T14:16:11;7.50;;;5.83;;
10851;SDS011;5479;52.046;6.314;2024-03-22T14:18:38;7.90;;;6.20;;
10851;SDS011;5479;52.046;6.314;2024-03-22T14:21:05;7.57;;;5.87;;
10851;SDS011;5479;52.046;6.314;2024-03-22T14:23:33;8.00;;;4.97;;
10851;SDS011;5479;52.046;6.314;2024-03-22T14:26:02;6.03;;;4.20;;
10851;SDS011;5479;52.046;6.314;2024-03-22T14:28:29;6.20;;;4.30;;
10851;SDS011;5479;52.046;6.314;2024-03-22T14:30:57;6.93;;;4.77;;
10851;SDS011;5479;52.046;6.314;2024-03-22T14:33:24;6.20;;;4.30;;
10851;SDS011;5479;52.046;6.314;2024-03-22T14:35:52;5.23;;;3.47;;
10851;SDS011;5479;52.046;6.314;2024-03-22T14:38:19;6.10;;;3.60;;
10851;SDS011;5479;52.046;6.314;2024-03-22T14:40:46;5.23;;;3.60;;
10851;SDS011;5479;52.046;6.314;2024-03-22T14:43:16;4.93;;;3.33;;